createdAt,value
2023-06-22T00:01:31.243Z,7.03
2023-06-22T00:04:01.830Z,6.53
2023-06-22T00:06:30.404Z,6.53
2023-06-22T00:08:58.720Z,5.47
2023-06-22T00:11:29.028Z,4.97
2023-06-22T00:13:57.375Z,9.67
2023-06-22T00:16:25.646Z,7.07
2023-06-22T00:18:54.014Z,7.03
2023-06-22T00:21:22.449Z,6.83
2023-06-22T00:23:50.778Z,6.70
2023-06-22T00:26:25.818Z,6.83
2023-06-22T00:28:55.514Z,7.37
2023-06-22T00:31:23.890Z,9.93
2023-06-22T00:33:52.606Z,8.47
2023-06-22T00:36:29.927Z,7.80
2023-06-22T00:38:58.741Z,8.03
2023-06-22T00:41:32.299Z,7.10
2023-06-22T00:44:01.936Z,9.07
2023-06-22T00:46:30.386Z,9.13
2023-06-22T00:48:59.050Z,6.73
2023-06-22T00:51:27.546Z,8.13
2023-06-22T00:53:56.508Z,5.00
2023-06-22T00:56:31.120Z,6.00
2023-06-22T00:59:04.618Z,8.03
2023-06-22T01:01:33.517Z,6.17
2023-06-22T01:04:07.694Z,6.43
2023-06-22T01:06:47.126Z,5.33
2023-06-22T01:09:22.498Z,7.73
2023-06-22T01:12:00.013Z,8.13
2023-06-22T01:14:39.361Z,7.50
2023-06-22T01:17:10.280Z,7.70
2023-06-22T01:19:48.001Z,4.80
2023-06-22T01:22:19.363Z,7.03
2023-06-22T01:24:59.776Z,7.67
2023-06-22T01:27:43.465Z,6.90
2023-06-22T01:30:14.122Z,6.37
2023-06-22T01:32:43.715Z,8.47
2023-06-22T01:35:19.556Z,6.50
2023-06-22T01:37:49.276Z,6.87
2023-06-22T01:40:18.252Z,5.57
2023-06-22T01:42:47.437Z,8.10
2023-06-22T01:45:18.349Z,7.50
2023-06-22T01:47:47.106Z,7.33
2023-06-22T01:50:15.633Z,7.43
2023-06-22T01:52:43.977Z,5.83
2023-06-22T01:55:12.295Z,5.50
2023-06-22T01:57:41.198Z,10.33
2023-06-22T02:00:16.859Z,8.87
2023-06-22T02:02:54.148Z,9.73
2023-06-22T02:05:23.551Z,10.63
2023-06-22T02:07:57.907Z,8.83
2023-06-22T02:10:33.599Z,6.43
2023-06-22T02:13:05.545Z,10.10
2023-06-22T02:15:35.823Z,7.33
2023-06-22T02:18:04.368Z,6.73
2023-06-22T02:20:32.982Z,6.50
2023-06-22T02:23:01.341Z,7.50
2023-06-22T02:25:29.718Z,7.63
2023-06-22T02:27:58.024Z,6.93
2023-06-22T02:30:26.563Z,9.00
2023-06-22T02:32:59.944Z,7.27
2023-06-22T02:35:32.830Z,6.20
2023-06-22T02:38:04.711Z,7.30
2023-06-22T02:40:35.862Z,9.77
2023-06-22T02:43:05.208Z,8.07
2023-06-22T02:45:33.577Z,8.83
2023-06-22T02:48:06.237Z,8.60
2023-06-22T02:50:34.659Z,8.43
2023-06-22T02:53:02.967Z,9.07
2023-06-22T02:55:32.062Z,10.67
2023-06-22T02:58:09.681Z,7.53
2023-06-22T03:00:38.053Z,14.67
2023-06-22T03:03:07.829Z,11.00
2023-06-22T03:05:38.801Z,8.53
2023-06-22T03:08:07.164Z,6.67
2023-06-22T03:10:35.462Z,9.83
2023-06-22T03:13:03.796Z,11.07
2023-06-22T03:15:32.575Z,8.30
2023-06-22T03:18:01.046Z,8.33
2023-06-22T03:20:34.481Z,13.27
2023-06-22T03:23:02.924Z,9.13
2023-06-22T03:25:31.280Z,9.07
2023-06-22T03:27:59.572Z,10.20
2023-06-22T03:30:28.237Z,11.33
2023-06-22T03:32:56.906Z,8.40
2023-06-22T03:35:25.345Z,13.50
2023-06-22T03:37:55.169Z,11.83
2023-06-22T03:40:26.607Z,14.40
2023-06-22T03:42:54.990Z,9.00
2023-06-22T03:45:23.313Z,10.93
2023-06-22T03:47:51.784Z,8.90
2023-06-22T03:50:24.343Z,9.63
2023-06-22T03:52:54.013Z,8.30
2023-06-22T03:55:25.457Z,10.73
2023-06-22T03:57:55.297Z,9.23
2023-06-22T04:00:23.565Z,9.17
2023-06-22T04:02:52.223Z,8.00
2023-06-22T04:05:20.615Z,9.57
2023-06-22T04:07:49.033Z,11.40
2023-06-22T04:10:24.453Z,10.60
2023-06-22T04:12:52.827Z,9.63
2023-06-22T04:15:21.096Z,9.43
2023-06-22T04:17:49.473Z,11.17
2023-06-22T04:20:17.812Z,8.00
2023-06-22T04:22:49.376Z,10.57
2023-06-22T04:25:17.821Z,10.60
2023-06-22T04:27:47.510Z,9.53
2023-06-22T04:30:17.409Z,10.30
2023-06-22T04:32:46.672Z,8.03
2023-06-22T04:35:17.009Z,9.40
2023-06-22T04:37:47.138Z,9.60
2023-06-22T04:40:15.615Z,13.00
2023-06-22T04:42:54.055Z,7.53
2023-06-22T04:45:24.014Z,11.27
2023-06-22T04:47:53.176Z,10.53
2023-06-22T04:50:22.873Z,10.77
2023-06-22T04:52:51.532Z,9.53
2023-06-22T04:55:20.911Z,10.53
2023-06-22T04:57:50.806Z,9.10
2023-06-22T05:00:24.237Z,10.87
2023-06-22T05:03:10.729Z,11.00
2023-06-22T05:05:46.876Z,8.27
2023-06-22T05:08:16.638Z,11.07
2023-06-22T05:10:59.125Z,9.57
2023-06-22T05:13:34.727Z,11.53
2023-06-22T05:16:04.126Z,7.40
2023-06-22T05:18:34.453Z,9.07
2023-06-22T05:21:03.111Z,8.00
2023-06-22T05:23:31.411Z,10.73
2023-06-22T05:26:02.356Z,11.40
2023-06-22T05:28:30.615Z,10.40
2023-06-22T05:30:59.097Z,8.97
2023-06-22T05:33:27.504Z,11.23
2023-06-22T05:35:57.225Z,8.27
2023-06-22T05:38:25.546Z,10.27
2023-06-22T05:40:53.847Z,7.90
2023-06-22T05:43:22.165Z,12.73
2023-06-22T05:45:50.561Z,8.40
2023-06-22T05:48:18.987Z,9.33
2023-06-22T05:50:47.499Z,11.67
2023-06-22T05:53:18.907Z,9.97
2023-06-22T05:55:49.664Z,7.67
2023-06-22T05:58:18.159Z,8.43
2023-06-22T06:00:47.492Z,10.73
2023-06-22T06:03:18.339Z,7.33
2023-06-22T06:05:49.442Z,8.27
2023-06-22T06:08:19.131Z,7.03
2023-06-22T06:10:49.673Z,7.57
2023-06-22T06:13:18.007Z,7.07
2023-06-22T06:15:46.438Z,9.57
2023-06-22T06:18:14.811Z,8.10
2023-06-22T06:20:43.144Z,8.77
2023-06-22T06:23:11.497Z,11.43
2023-06-22T06:25:41.197Z,10.57
2023-06-22T06:28:09.561Z,8.07
2023-06-22T06:30:38.861Z,8.57
2023-06-22T06:33:10.129Z,9.87
2023-06-22T06:35:38.830Z,9.87
2023-06-22T06:38:07.280Z,8.23
2023-06-22T06:40:35.840Z,8.33
2023-06-22T06:43:05.665Z,10.00
2023-06-22T06:45:35.826Z,16.10
2023-06-22T06:48:04.553Z,7.57
2023-06-22T06:50:33.331Z,8.43
2023-06-22T06:53:01.964Z,11.27
2023-06-22T06:55:33.988Z,8.13
2023-06-22T06:58:03.108Z,8.80
2023-06-22T07:00:33.258Z,15.13
2023-06-22T07:03:01.781Z,12.43
2023-06-22T07:05:30.259Z,6.70
2023-06-22T07:07:58.640Z,7.50
2023-06-22T07:10:27.309Z,6.27
2023-06-22T07:12:55.761Z,5.43
2023-06-22T07:15:24.356Z,8.63
2023-06-22T07:17:54.045Z,8.07
2023-06-22T07:20:22.387Z,5.10
2023-06-22T07:22:50.750Z,7.20
2023-06-22T07:25:19.245Z,7.37
2023-06-22T07:27:58.606Z,6.67
2023-06-22T07:30:28.192Z,6.70
2023-06-22T07:32:59.178Z,5.70
2023-06-22T07:35:27.921Z,8.03
2023-06-22T07:37:56.243Z,6.50
2023-06-22T07:40:24.821Z,8.97
2023-06-22T07:42:54.582Z,5.93
2023-06-22T07:45:22.936Z,8.65
2023-06-22T07:47:52.283Z,7.13
2023-06-22T07:50:22.084Z,6.40
2023-06-22T07:52:50.518Z,6.50
2023-06-22T07:55:18.970Z,5.82
2023-06-22T07:57:54.423Z,5.82
2023-06-22T08:00:23.321Z,5.18
2023-06-22T08:02:51.830Z,4.82
2023-06-22T08:05:22.921Z,5.78
2023-06-22T08:07:51.999Z,6.35
2023-06-22T08:10:21.311Z,7.85
2023-06-22T08:12:49.753Z,4.55
2023-06-22T08:15:18.240Z,7.05
2023-06-22T08:17:47.398Z,5.45
2023-06-22T08:20:16.084Z,6.38
2023-06-22T08:22:46.349Z,6.50
2023-06-22T08:25:15.627Z,5.75
2023-06-22T08:27:49.525Z,4.80
2023-06-22T08:30:21.023Z,5.55
2023-06-22T08:32:49.461Z,7.47
2023-06-22T08:35:17.896Z,7.63
2023-06-22T08:37:52.909Z,5.15
2023-06-22T08:40:22.550Z,4.97
2023-06-22T08:42:51.317Z,5.18
2023-06-22T08:45:19.901Z,9.27
2023-06-22T08:47:48.231Z,5.82
2023-06-22T08:50:16.713Z,5.07
2023-06-22T08:52:47.104Z,4.97
2023-06-22T08:55:15.741Z,5.32
2023-06-22T08:57:45.034Z,4.43
2023-06-22T09:00:21.339Z,5.55
2023-06-22T09:02:50.505Z,5.88
2023-06-22T09:05:19.350Z,7.57
2023-06-22T09:07:49.106Z,6.03
2023-06-22T09:10:17.879Z,5.60
2023-06-22T09:12:46.360Z,10.13
2023-06-22T09:15:17.494Z,7.85
2023-06-22T09:17:48.444Z,7.70
2023-06-22T09:20:17.212Z,9.77
2023-06-22T09:22:45.702Z,7.53
2023-06-22T09:25:15.734Z,6.38
2023-06-22T09:27:44.131Z,4.82
2023-06-22T09:30:15.732Z,7.55
2023-06-22T09:32:45.056Z,9.18
2023-06-22T09:35:14.662Z,11.15
2023-06-22T09:37:43.445Z,5.25
2023-06-22T09:40:16.881Z,8.18
2023-06-22T09:42:45.324Z,7.70
2023-06-22T09:45:13.711Z,9.32
2023-06-22T09:47:42.589Z,5.88
2023-06-22T09:50:11.794Z,6.10
2023-06-22T09:55:16.684Z,7.32
2023-06-22T09:57:46.503Z,7.07
2023-06-22T10:00:16.701Z,10.48
2023-06-22T10:02:45.784Z,9.93
2023-06-22T10:05:14.512Z,7.90
2023-06-22T10:07:44.561Z,7.38
2023-06-22T10:10:14.133Z,12.98
2023-06-22T10:12:50.007Z,8.45
2023-06-22T10:15:22.261Z,8.20
2023-06-22T10:17:50.944Z,8.30
2023-06-22T10:20:29.293Z,6.78
2023-06-22T10:22:59.633Z,10.07
2023-06-22T10:25:29.976Z,8.57
2023-06-22T10:27:59.959Z,7.13
2023-06-22T10:30:29.968Z,5.60
2023-06-22T10:32:58.435Z,8.95
2023-06-22T10:35:32.192Z,5.28
2023-06-22T10:38:00.963Z,12.95
2023-06-22T10:40:29.342Z,5.55
2023-06-22T10:42:59.094Z,12.07
2023-06-22T10:45:28.598Z,6.72
2023-06-22T10:47:57.354Z,9.30
2023-06-22T10:50:26.749Z,7.85
2023-06-22T10:52:58.141Z,8.88
2023-06-22T10:55:37.172Z,7.00
2023-06-22T10:58:17.075Z,7.80
2023-06-22T11:00:45.404Z,7.60
2023-06-22T11:03:15.393Z,6.15
2023-06-22T11:05:43.920Z,9.13
2023-06-22T11:08:12.184Z,12.82
2023-06-22T11:10:40.672Z,7.85
2023-06-22T11:13:11.103Z,6.32
2023-06-22T11:15:42.878Z,9.05
2023-06-22T11:18:11.429Z,7.40
2023-06-22T11:20:44.459Z,9.30
2023-06-22T11:23:13.882Z,7.15
2023-06-22T11:25:43.573Z,7.55
2023-06-22T11:28:11.960Z,9.63
2023-06-22T11:30:40.324Z,9.05
2023-06-22T11:33:10.075Z,7.63
2023-06-22T11:35:38.441Z,6.22
2023-06-22T11:38:06.728Z,10.38
2023-06-22T11:40:35.010Z,4.78
2023-06-22T11:43:03.884Z,9.30
2023-06-22T11:45:32.223Z,10.30
2023-06-22T11:48:00.702Z,12.95
2023-06-22T11:50:31.692Z,11.48
2023-06-22T11:53:00.266Z,6.65
2023-06-22T11:55:28.615Z,12.93
2023-06-22T11:58:01.133Z,8.25
2023-06-22T12:00:30.724Z,10.70
2023-06-22T12:03:01.108Z,14.75
2023-06-22T12:05:31.257Z,9.48
2023-06-22T12:07:59.634Z,7.80
2023-06-22T12:10:29.969Z,8.40
2023-06-22T12:13:00.947Z,8.45
2023-06-22T12:15:29.697Z,8.80
2023-06-22T12:17:58.054Z,10.30
2023-06-22T12:20:26.677Z,9.43
2023-06-22T12:22:57.291Z,10.75
2023-06-22T12:25:25.769Z,8.10
2023-06-22T12:27:54.915Z,11.00
2023-06-22T12:30:23.338Z,8.55
2023-06-22T12:32:54.437Z,11.68
2023-06-22T12:35:23.649Z,9.50
2023-06-22T12:37:52.030Z,11.98
2023-06-22T12:40:23.887Z,10.10
2023-06-22T12:42:52.242Z,8.40
2023-06-22T12:45:22.457Z,7.00
2023-06-22T12:47:53.855Z,10.27
2023-06-22T12:50:22.159Z,11.82
2023-06-22T12:52:50.462Z,8.43
2023-06-22T12:55:18.871Z,11.98
2023-06-22T12:57:48.538Z,11.77
2023-06-22T13:00:18.398Z,11.07
2023-06-22T13:02:46.804Z,15.30
2023-06-22T13:05:15.271Z,11.38
2023-06-22T13:07:43.912Z,12.20
2023-06-22T13:10:12.395Z,15.65
2023-06-22T13:12:40.717Z,15.90
2023-06-22T13:15:11.109Z,9.00
2023-06-22T13:17:39.561Z,11.70
2023-06-22T13:20:17.714Z,9.57
2023-06-22T13:22:46.158Z,13.75
2023-06-22T13:25:14.808Z,10.23
2023-06-22T13:27:43.236Z,8.90
2023-06-22T13:30:16.521Z,11.18
2023-06-22T13:32:45.029Z,19.10
2023-06-22T13:35:14.108Z,11.27
2023-06-22T13:37:42.577Z,12.82
2023-06-22T13:40:11.842Z,8.82
2023-06-22T13:42:40.264Z,9.98
2023-06-22T13:45:16.939Z,10.90
2023-06-22T13:47:45.325Z,10.07
2023-06-22T13:50:14.824Z,11.70
2023-06-22T13:52:43.197Z,9.13
2023-06-22T13:55:15.392Z,12.27
2023-06-22T13:57:44.477Z,8.88
2023-06-22T14:00:17.437Z,12.05
2023-06-22T14:02:45.885Z,9.40
2023-06-22T14:05:14.410Z,10.57
2023-06-22T14:07:43.183Z,8.43
2023-06-22T14:10:14.994Z,8.13
2023-06-22T14:12:43.398Z,9.75
2023-06-22T14:15:13.414Z,9.75
2023-06-22T14:17:41.787Z,7.93
2023-06-22T14:20:14.083Z,8.07
2023-06-22T14:22:42.480Z,10.20
2023-06-22T14:25:11.219Z,10.10
2023-06-22T14:27:39.517Z,11.85
2023-06-22T14:30:09.556Z,11.35
2023-06-22T14:32:39.290Z,11.07
2023-06-22T14:35:13.125Z,8.70
2023-06-22T14:37:41.469Z,12.15
2023-06-22T14:40:10.915Z,9.40
2023-06-22T14:42:39.337Z,9.40
2023-06-22T14:45:12.134Z,11.80
2023-06-22T14:47:42.045Z,12.27
2023-06-22T14:50:11.123Z,11.32
2023-06-22T14:52:39.518Z,9.43
2023-06-22T14:55:09.247Z,8.98
2023-06-22T14:57:37.653Z,11.25
2023-06-22T15:00:08.083Z,11.68
2023-06-22T15:02:36.657Z,9.43
2023-06-22T15:05:07.236Z,10.25
2023-06-22T15:07:35.666Z,9.60
2023-06-22T15:10:04.129Z,14.82
2023-06-22T15:12:32.468Z,8.90
2023-06-22T15:15:00.830Z,7.95
2023-06-22T15:17:30.428Z,11.63
2023-06-22T15:20:02.423Z,8.68
2023-06-22T15:22:32.382Z,13.05
2023-06-22T15:25:00.776Z,9.65
2023-06-22T15:27:29.174Z,11.23
2023-06-22T15:30:00.749Z,10.40
2023-06-22T15:32:30.027Z,9.73
2023-06-22T15:34:58.423Z,11.05
2023-06-22T15:37:26.802Z,12.02
2023-06-22T15:39:57.129Z,11.00
2023-06-22T15:42:25.493Z,11.65
2023-06-22T15:44:53.824Z,14.15
2023-06-22T15:47:23.909Z,12.13
2023-06-22T15:49:52.993Z,10.10
2023-06-22T15:52:21.716Z,10.32
2023-06-22T15:54:51.227Z,10.68
2023-06-22T15:57:20.995Z,11.77
2023-06-22T15:59:49.370Z,10.07
2023-06-22T16:02:17.757Z,11.88
2023-06-22T16:04:46.155Z,10.48
2023-06-22T16:07:14.690Z,11.02
2023-06-22T16:09:43.215Z,13.55
2023-06-22T16:12:12.050Z,11.30
2023-06-22T16:14:43.073Z,15.73
2023-06-22T16:17:11.539Z,14.30
2023-06-22T16:19:39.943Z,10.23
2023-06-22T16:22:08.682Z,9.27
2023-06-22T16:24:37.060Z,13.85
2023-06-22T16:27:05.967Z,12.85
2023-06-22T16:29:37.355Z,11.80
2023-06-22T16:32:09.202Z,13.20
2023-06-22T16:34:37.585Z,11.88
2023-06-22T16:37:06.827Z,12.90
2023-06-22T16:39:35.148Z,8.30
2023-06-22T16:42:03.874Z,12.98
2023-06-22T16:44:32.302Z,15.07
2023-06-22T16:47:02.459Z,12.00
2023-06-22T16:49:32.209Z,13.63
2023-06-22T16:52:00.803Z,11.23
2023-06-22T16:54:31.732Z,12.27
2023-06-22T16:57:03.427Z,15.32
2023-06-22T16:59:31.965Z,10.48
2023-06-22T17:02:00.657Z,13.73
2023-06-22T17:04:33.135Z,12.30
2023-06-22T17:07:09.893Z,13.38
2023-06-22T17:09:42.599Z,10.38
2023-06-22T17:12:11.973Z,11.30
2023-06-22T17:14:45.460Z,9.05
2023-06-22T17:17:15.972Z,11.32
2023-06-22T17:19:45.988Z,9.85
2023-06-22T17:22:14.431Z,12.65
2023-06-22T17:24:43.089Z,13.52
2023-06-22T17:27:11.587Z,11.63
2023-06-22T17:29:39.902Z,10.48
2023-06-22T17:32:09.086Z,12.45
2023-06-22T17:34:38.335Z,9.25
2023-06-22T17:37:08.138Z,12.63
2023-06-22T17:39:36.631Z,8.18
2023-06-22T17:42:10.231Z,13.70
2023-06-22T17:44:38.620Z,10.90
2023-06-22T17:47:07.526Z,11.57
2023-06-22T17:49:35.917Z,12.73
2023-06-22T17:52:04.437Z,13.73
2023-06-22T17:54:39.507Z,14.32
2023-06-22T17:57:18.042Z,10.93
2023-06-22T17:59:51.100Z,9.25
2023-06-22T18:02:26.360Z,11.65
2023-06-22T18:04:59.925Z,14.88
2023-06-22T18:07:31.106Z,12.82
2023-06-22T18:10:06.032Z,10.35
2023-06-22T18:12:36.136Z,11.23
2023-06-22T18:15:05.892Z,10.10
2023-06-22T18:17:35.226Z,8.60
2023-06-22T18:20:07.762Z,7.18
2023-06-22T18:22:37.209Z,11.30
2023-06-22T18:25:14.460Z,17.20
2023-06-22T18:27:44.621Z,9.00
2023-06-22T18:30:13.739Z,9.27
2023-06-22T18:32:42.506Z,11.45
2023-06-22T18:35:12.504Z,12.85
2023-06-22T18:37:43.455Z,16.42
2023-06-22T18:40:18.066Z,11.02
2023-06-22T18:42:50.554Z,11.48
2023-06-22T18:45:26.285Z,9.77
2023-06-22T18:48:03.302Z,11.30
2023-06-22T18:50:40.512Z,12.98
2023-06-22T18:53:16.883Z,13.45
2023-06-22T18:55:52.593Z,11.13
2023-06-22T18:58:26.606Z,11.93
2023-06-22T19:00:56.415Z,21.90
2023-06-22T19:03:36.023Z,22.65
2023-06-22T19:06:04.673Z,16.70
2023-06-22T19:09:15.799Z,20.90
2023-06-22T19:11:45.567Z,17.40
2023-06-22T19:14:21.998Z,15.90
2023-06-22T19:16:59.286Z,14.00
2023-06-22T19:19:27.791Z,9.57
2023-06-22T19:22:01.896Z,9.20
2023-06-22T19:24:44.314Z,11.75
2023-06-22T19:27:14.975Z,13.57
2023-06-22T19:29:43.760Z,14.60
2023-06-22T19:32:12.525Z,18.90
2023-06-22T19:34:46.877Z,16.93
2023-06-22T19:37:18.381Z,14.03
2023-06-22T19:39:47.674Z,19.23
2023-06-22T19:42:17.652Z,14.97
2023-06-22T19:44:47.222Z,12.60
2023-06-22T19:47:16.466Z,12.70
2023-06-22T19:49:45.368Z,10.93
2023-06-22T19:52:13.724Z,15.60
2023-06-22T19:54:42.305Z,12.43
2023-06-22T19:57:11.378Z,12.10
2023-06-22T19:59:41.422Z,17.10
2023-06-22T20:02:11.408Z,13.43
2023-06-22T20:04:40.802Z,13.23
2023-06-22T20:07:09.703Z,14.50
2023-06-22T20:09:43.328Z,13.07
2023-06-22T20:12:15.316Z,13.37
2023-06-22T20:14:45.339Z,12.70
2023-06-22T20:17:17.457Z,13.57
2023-06-22T20:19:46.265Z,15.63
2023-06-22T20:22:14.643Z,10.67
2023-06-22T20:24:42.957Z,11.77
2023-06-22T20:27:14.370Z,13.50
2023-06-22T20:29:45.224Z,14.13
2023-06-22T20:32:15.482Z,16.47
2023-06-22T20:34:46.642Z,11.90
2023-06-22T20:37:15.663Z,11.77
2023-06-22T20:39:48.482Z,14.10
2023-06-22T20:42:18.540Z,9.87
2023-06-22T20:44:51.782Z,10.57
2023-06-22T20:47:22.523Z,12.70
2023-06-22T20:49:51.246Z,12.77
2023-06-22T20:52:19.864Z,8.43
2023-06-22T20:54:48.488Z,11.30
2023-06-22T20:57:16.988Z,11.10
2023-06-22T20:59:45.365Z,14.07
2023-06-22T21:02:16.974Z,11.80
2023-06-22T21:04:45.589Z,13.37
2023-06-22T21:07:13.951Z,11.67
2023-06-22T21:09:51.460Z,9.73
2023-06-22T21:12:20.772Z,14.67
2023-06-22T21:14:50.691Z,12.23
2023-06-22T21:17:20.785Z,9.93
2023-06-22T21:19:49.277Z,9.50
2023-06-22T21:22:17.637Z,12.07
2023-06-22T21:24:46.555Z,4.77
2023-06-22T21:27:15.103Z,8.50
2023-06-22T21:29:43.430Z,9.10
2023-06-22T21:32:11.866Z,7.60
2023-06-22T21:34:41.565Z,9.63
2023-06-22T21:37:09.879Z,6.77
2023-06-22T21:39:38.207Z,6.70
2023-06-22T21:42:15.929Z,11.93
2023-06-22T21:44:44.220Z,6.77
2023-06-22T21:47:12.594Z,9.90
2023-06-22T21:49:42.752Z,8.70
2023-06-22T21:52:12.681Z,7.27
2023-06-22T21:54:41.151Z,7.40
2023-06-22T21:57:09.945Z,6.27
2023-06-22T21:59:38.254Z,6.13
2023-06-22T22:02:07.388Z,4.80
2023-06-22T22:04:35.871Z,7.17
2023-06-22T22:07:07.612Z,6.87
2023-06-22T22:09:35.928Z,6.53
2023-06-22T22:12:04.522Z,6.83
2023-06-22T22:14:33.235Z,6.90
2023-06-22T22:17:01.651Z,7.13
2023-06-22T22:19:30.033Z,5.47
2023-06-22T22:21:58.346Z,7.00
2023-06-22T22:24:28.043Z,5.63
2023-06-22T22:26:56.356Z,5.63
2023-06-22T22:29:24.669Z,7.63
2023-06-22T22:31:53.040Z,7.37
2023-06-22T22:34:21.363Z,7.67
2023-06-22T22:36:49.836Z,8.53
2023-06-22T22:39:39.569Z,6.67
2023-06-22T22:42:09.258Z,9.17
2023-06-22T22:44:37.538Z,6.63
2023-06-22T22:47:08.233Z,8.67
2023-06-22T22:49:36.560Z,6.87
2023-06-22T22:52:06.026Z,5.07
2023-06-22T22:54:36.032Z,5.20
2023-06-22T22:57:04.960Z,7.43
2023-06-22T22:59:33.263Z,6.07
2023-06-22T23:02:01.686Z,8.00
2023-06-22T23:04:30.017Z,5.23
2023-06-22T23:07:01.249Z,8.67
2023-06-22T23:09:29.562Z,6.53
2023-06-22T23:11:59.302Z,8.13
2023-06-22T23:14:27.621Z,7.50
2023-06-22T23:16:57.741Z,5.13
2023-06-22T23:19:26.437Z,5.90
2023-06-22T23:21:54.701Z,8.47
2023-06-22T23:24:23.032Z,6.77
2023-06-22T23:26:51.404Z,7.37
2023-06-22T23:29:21.126Z,8.07
2023-06-22T23:31:49.448Z,6.20
2023-06-22T23:34:17.770Z,6.40
2023-06-22T23:36:49.038Z,9.47
2023-06-22T23:39:18.839Z,8.97
2023-06-22T23:41:55.125Z,7.03
2023-06-22T23:44:26.023Z,5.73
2023-06-22T23:46:54.389Z,6.23
2023-06-22T23:49:22.645Z,7.37
2023-06-22T23:51:50.990Z,7.87
2023-06-22T23:54:19.300Z,8.93
2023-06-22T23:56:47.646Z,7.10
2023-06-22T23:59:15.985Z,5.30
